Time;durP1;ratioP1;P1;durP2;ratioP2;P2;SDS_P1;SDS_P2;PMS_P1;PMS_P2;Temp;Humidity;BMP_temperature;BMP_pressure;BME280_temperature;BME280_humidity;BME280_pressure;Samples;Min_cycle;Max_cycle;Signal;HPM_P1;HPM_P2
2023/05/07 00:00:25;;;;;;;;;;;;;;;17.75;64.81;99937.06;5089957;28;20237;-42
2023/05/07 00:02:50;;;;;;;;;;;;;;;17.82;64.95;99944.97;5090311;28;19922;-42
2023/05/07 00:05:16;;;;;;;;;;;;;;;17.73;65.76;99941.06;5090268;28;20290;-42
2023/05/07 00:07:41;;;;;;;;;;;;;;;17.93;65.54;99943.25;5089698;28;19996;-42
2023/05/07 00:10:07;;;;;;;;;;;;;;;17.92;64.22;99933.56;5090360;28;19935;-42
2023/05/07 00:12:35;;;;;;;;;;;;;;;18.05;64.24;99937.78;5089917;28;19938;-43
2023/05/07 00:15:04;;;;;;;;;;;;;;;18.01;63.43;99933.94;5090388;28;20436;-42
2023/05/07 00:17:30;;;;;;;;;;;;;;;17.63;64.24;99935.50;5094177;28;19961;-41
2023/05/07 00:19:55;;;;;;;;;;;;;;;17.45;64.53;99934.69;5094211;28;19916;-41
2023/05/07 00:22:21;;;;;;;;;;;;;;;17.08;66.42;99932.47;5094039;28;19912;-41
2023/05/07 00:24:46;;;;;;;;;;;;;;;17.15;66.48;99932.31;5093976;28;20030;-41
2023/05/07 00:27:11;;;;;;;;;;;;;;;16.56;67.51;99927.97;5093851;28;19951;-41
2023/05/07 00:29:37;;;;;;;;;;;;;;;16.76;67.55;99935.59;5093965;28;19924;-41
2023/05/07 00:32:02;;;;;;;;;;;;;;;16.67;67.36;99928.16;5093865;28;20415;-41
2023/05/07 00:34:27;;;;;;;;;;;;;;;17.00;66.63;99925.59;5094017;28;19912;-42
2023/05/07 00:36:53;;;;;;;;;;;;;;;16.87;67.43;99927.75;5093652;28;19919;-41
2023/05/07 00:39:18;;;;;;;;;;;;;;;16.77;67.42;99929.19;5093649;28;20003;-42
2023/05/07 00:41:43;;;;;;;;;;;;;;;16.49;68.35;99923.78;5093660;28;19962;-41
2023/05/07 00:44:09;;;;;;;;;;;;;;;16.47;68.60;99925.88;5093601;28;20010;-41
2023/05/07 00:46:34;;;;;;;;;;;;;;;16.54;67.93;99929.25;5093650;28;19912;-41
2023/05/07 00:48:59;;;;;;;;;;;;;;;16.65;66.64;99928.41;5093513;28;19908;-41
2023/05/07 00:51:26;;;;;;;;;;;;;;;16.46;67.32;99926.94;5093379;28;19961;-41
2023/05/07 00:53:52;;;;;;;;;;;;;;;16.83;66.22;99932.81;5093289;28;19949;-42
2023/05/07 00:56:17;;;;;;;;;;;;;;;16.66;66.23;99932.72;5093401;28;19923;-42
2023/05/07 00:58:43;;;;;;;;;;;;;;;16.96;65.39;99934.38;5093188;28;19922;-42
2023/05/07 01:01:08;;;;;;;;;;;;;;;16.72;65.99;99930.97;5093196;28;20451;-42
2023/05/07 01:03:33;;;;;;;;;;;;;;;16.34;67.22;99938.53;5093161;28;19915;-42
2023/05/07 01:05:59;;;;;;;;;;;;;;;16.50;67.15;99930.78;5093054;28;19934;-42
2023/05/07 01:08:26;;;;;;;;;;;;;;;16.99;65.58;99937.41;5093352;28;19920;-42
2023/05/07 01:10:52;;;;;;;;;;;;;;;17.01;67.04;99937.16;5093091;28;19912;-42
2023/05/07 01:13:18;;;;;;;;;;;;;;;17.41;65.36;99943.50;5093048;28;20019;-43
2023/05/07 01:15:44;;;;;;;;;;;;;;;17.51;64.97;99941.78;5092978;28;19945;-41
2023/05/07 01:18:09;;;;;;;;;;;;;;;17.58;64.30;99941.63;5093272;28;19912;-41
2023/05/07 01:20:35;;;;;;;;;;;;;;;17.29;64.44;99941.69;5092717;28;20533;-41
2023/05/07 01:23:00;;;;;;;;;;;;;;;17.14;65.26;99933.38;5092986;28;19912;-41
2023/05/07 01:25:26;;;;;;;;;;;;;;;17.28;64.57;99934.69;5093088;28;19919;-41
2023/05/07 01:27:51;;;;;;;;;;;;;;;17.43;64.03;99931.44;5091265;28;20299;-41
2023/05/07 01:30:18;;;;;;;;;;;;;;;17.55;63.12;99937.56;5093161;28;20055;-41
2023/05/07 01:32:47;;;;;;;;;;;;;;;17.53;63.58;99934.28;5093363;28;20283;-43
2023/05/07 01:35:15;;;;;;;;;;;;;;;17.24;64.70;99935.41;5093351;28;19912;-41
2023/05/07 01:37:41;;;;;;;;;;;;;;;17.35;65.43;99934.53;5093049;28;20086;-41
2023/05/07 01:40:07;;;;;;;;;;;;;;;17.05;67.18;99938.31;5092446;28;19917;-42
2023/05/07 01:42:33;;;;;;;;;;;;;;;17.29;66.14;99935.53;5093033;28;20368;-42
2023/05/07 01:44:58;;;;;;;;;;;;;;;17.41;65.23;99917.41;5093076;28;19912;-41
2023/05/07 01:47:24;;;;;;;;;;;;;;;17.38;65.34;99916.03;5093090;28;19916;-42
2023/05/07 01:49:50;;;;;;;;;;;;;;;17.52;64.79;99926.47;5093061;28;19927;-41
2023/05/07 01:52:15;;;;;;;;;;;;;;;17.44;65.17;99926.88;5093120;28;19913;-42
2023/05/07 01:54:40;;;;;;;;;;;;;;;17.49;65.25;99930.44;5093195;28;19912;-41
2023/05/07 01:57:06;;;;;;;;;;;;;;;17.54;65.16;99924.34;5093000;28;19962;-41
2023/05/07 01:59:31;;;;;;;;;;;;;;;17.61;64.71;99929.56;5092495;28;19936;-42
2023/05/07 02:01:56;;;;;;;;;;;;;;;17.67;64.32;99926.72;5092612;28;19983;-41
2023/05/07 02:04:21;;;;;;;;;;;;;;;17.73;64.16;99924.91;5092852;28;19912;-42
2023/05/07 02:06:47;;;;;;;;;;;;;;;17.77;64.17;99920.66;5092690;28;20038;-42
2023/05/07 02:09:14;;;;;;;;;;;;;;;17.88;63.75;99917.09;5092751;28;19959;-42
2023/05/07 02:11:40;;;;;;;;;;;;;;;17.99;63.05;99923.41;5092703;28;19935;-42
2023/05/07 02:14:05;;;;;;;;;;;;;;;17.91;63.32;99910.38;5092892;28;19916;-42
2023/05/07 02:16:30;;;;;;;;;;;;;;;17.92;63.55;99918.22;5092442;28;20398;-42
2023/05/07 02:18:56;;;;;;;;;;;;;;;17.91;63.34;99918.47;5092410;28;20018;-41
2023/05/07 02:21:21;;;;;;;;;;;;;;;17.93;63.03;99924.41;5092334;28;19919;-41
2023/05/07 02:23:47;;;;;;;;;;;;;;;17.97;62.61;99925.53;5092415;28;19994;-41
2023/05/07 02:26:12;;;;;;;;;;;;;;;17.91;62.44;99924.66;5092167;28;19946;-41
2023/05/07 02:28:37;;;;;;;;;;;;;;;17.69;63.22;99927.28;5092071;28;20006;-42
2023/05/07 02:31:03;;;;;;;;;;;;;;;17.76;63.40;99925.25;5088060;28;19917;-42
2023/05/07 02:33:28;;;;;;;;;;;;;;;17.69;63.90;99916.53;5076376;28;19935;-42
2023/05/07 02:35:53;;;;;;;;;;;;;;;17.58;64.46;99920.09;5092444;28;19923;-43
2023/05/07 02:38:19;;;;;;;;;;;;;;;17.64;64.17;99919.13;5091862;28;20275;-42
2023/05/07 02:40:44;;;;;;;;;;;;;;;17.71;63.92;99910.91;5091989;28;19916;-42
2023/05/07 02:43:09;;;;;;;;;;;;;;;17.74;64.15;99918.47;5092144;28;19913;-41
2023/05/07 02:45:36;;;;;;;;;;;;;;;17.69;63.92;99919.22;5092387;28;20371;-41
2023/05/07 02:48:01;;;;;;;;;;;;;;;17.72;63.73;99921.38;5091925;28;19912;-41
2023/05/07 02:50:26;;;;;;;;;;;;;;;17.75;63.77;99917.41;5091807;28;19919;-42
2023/05/07 02:52:52;;;;;;;;;;;;;;;17.73;63.61;99906.09;5091647;28;20294;-41
2023/05/07 02:55:17;;;;;;;;;;;;;;;17.75;63.86;99915.53;5092020;28;20371;-41
2023/05/07 02:57:42;;;;;;;;;;;;;;;17.75;64.22;99909.34;5091835;28;19919;-41
2023/05/07 03:00:15;;;;;;;;;;;;;;;17.54;64.31;99890.19;5091591;28;20362;-41
2023/05/07 03:02:40;;;;;;;;;;;;;;;17.64;64.22;99908.34;5091726;28;19951;-41
2023/05/07 03:05:06;;;;;;;;;;;;;;;17.69;64.05;99903.06;5092013;28;19947;-41
2023/05/07 03:07:31;;;;;;;;;;;;;;;17.70;64.14;99909.25;5091472;28;20014;-41
2023/05/07 03:09:56;;;;;;;;;;;;;;;17.69;64.32;99910.31;5091757;28;19919;-42
2023/05/07 03:12:22;;;;;;;;;;;;;;;17.70;64.53;99901.19;5091417;28;19934;-42
2023/05/07 03:14:47;;;;;;;;;;;;;;;17.58;65.11;99901.28;5091660;28;19912;-42
2023/05/07 03:17:12;;;;;;;;;;;;;;;17.56;65.47;99909.59;5091636;28;19973;-41
2023/05/07 03:19:37;;;;;;;;;;;;;;;17.59;65.30;99903.72;5091632;28;20387;-41
2023/05/07 03:22:03;;;;;;;;;;;;;;;17.53;65.98;99914.63;5091351;28;19946;-42
2023/05/07 03:24:28;;;;;;;;;;;;;;;17.54;65.99;99911.72;5091804;28;20376;-42
2023/05/07 03:26:53;;;;;;;;;;;;;;;17.64;65.97;99910.25;5091228;28;19928;-43
2023/05/07 03:29:19;;;;;;;;;;;;;;;17.62;65.84;99909.69;5091152;28;19998;-42
2023/05/07 03:31:45;;;;;;;;;;;;;;;17.68;66.36;99914.06;5091075;28;19916;-42
2023/05/07 03:34:10;;;;;;;;;;;;;;;17.56;66.96;99914.16;5091361;28;20303;-41
2023/05/07 03:36:35;;;;;;;;;;;;;;;17.60;67.08;99912.59;5091435;28;19992;-42
2023/05/07 03:39:01;;;;;;;;;;;;;;;17.31;68.17;99914.56;5091035;28;20011;-42
2023/05/07 03:41:26;;;;;;;;;;;;;;;16.77;70.02;99910.38;5091342;28;20024;-42
2023/05/07 03:43:51;;;;;;;;;;;;;;;16.57;72.18;99918.03;5091035;28;19916;-42
2023/05/07 03:46:16;;;;;;;;;;;;;;;16.98;70.83;99916.13;5090988;28;19912;-42
2023/05/07 03:48:42;;;;;;;;;;;;;;;16.89;70.99;99921.09;5097243;28;20072;-41
2023/05/07 03:51:07;;;;;;;;;;;;;;;16.70;71.59;99919.63;5097940;28;20406;-41
2023/05/07 03:53:32;;;;;;;;;;;;;;;16.95;71.48;99922.00;5101091;28;19913;-41
2023/05/07 03:55:57;;;;;;;;;;;;;;;17.03;71.19;99924.31;5099490;28;20502;-41
2023/05/07 03:58:23;;;;;;;;;;;;;;;17.46;69.46;99924.75;5100254;28;19912;-41
2023/05/07 04:00:48;;;;;;;;;;;;;;;17.48;68.36;99923.47;5100214;28;20045;-41
2023/05/07 04:03:13;;;;;;;;;;;;;;;17.68;68.06;99924.84;5100036;28;19916;-41
2023/05/07 04:05:39;;;;;;;;;;;;;;;18.36;65.70;99926.34;5100107;28;19911;-42
2023/05/07 04:08:05;;;;;;;;;;;;;;;18.75;64.15;99925.44;5101448;28;19993;-42
2023/05/07 04:10:30;;;;;;;;;;;;;;;18.78;63.57;99924.13;5098974;28;19912;-43
2023/05/07 04:12:56;;;;;;;;;;;;;;;18.76;63.00;99919.00;5100942;28;20290;-41
2023/05/07 04:15:23;;;;;;;;;;;;;;;19.33;61.35;99920.38;5109541;28;19916;-40
2023/05/07 04:17:48;;;;;;;;;;;;;;;19.57;60.20;99920.00;5110969;28;19972;-40
2023/05/07 04:20:17;;;;;;;;;;;;;;;19.72;58.86;99918.28;5110680;28;19920;-43
2023/05/07 04:22:42;;;;;;;;;;;;;;;20.19;58.22;99927.47;5111298;28;19911;-40
2023/05/07 04:25:11;;;;;;;;;;;;;;;19.92;57.54;99920.28;5110732;28;19912;-41
2023/05/07 04:27:37;;;;;;;;;;;;;;;20.27;56.86;99920.75;5110660;28;20314;-41
2023/05/07 04:30:03;;;;;;;;;;;;;;;20.43;55.85;99921.63;5111205;28;19939;-41
2023/05/07 04:32:29;;;;;;;;;;;;;;;20.58;55.76;99926.25;5111109;28;19912;-41
2023/05/07 04:34:55;;;;;;;;;;;;;;;20.61;55.21;99931.19;5110925;28;19986;-41
2023/05/07 04:37:20;;;;;;;;;;;;;;;20.63;54.49;99929.84;5110657;28;19958;-36
2023/05/07 04:39:45;;;;;;;;;;;;;;;20.93;54.43;99928.28;5110579;28;19955;-36
2023/05/07 04:42:14;;;;;;;;;;;;;;;20.84;54.02;99928.00;5110874;28;19912;-36
2023/05/07 04:44:40;;;;;;;;;;;;;;;20.55;54.39;99924.91;5110891;28;19912;-36
2023/05/07 04:47:05;;;;;;;;;;;;;;;21.15;53.44;99928.06;5111070;28;19923;-36
2023/05/07 04:49:30;;;;;;;;;;;;;;;21.50;51.91;99933.78;5102678;28;20356;-36
2023/05/07 04:51:55;;;;;;;;;;;;;;;22.16;50.53;99925.56;5088932;28;19924;-36
2023/05/07 04:54:21;;;;;;;;;;;;;;;22.54;49.03;99919.72;5090232;28;20381;-36
2023/05/07 04:56:46;;;;;;;;;;;;;;;22.85;47.79;99933.94;5085812;28;19916;-36
2023/05/07 04:59:11;;;;;;;;;;;;;;;22.97;47.64;99923.56;5089954;28;19939;-36
2023/05/07 05:01:37;;;;;;;;;;;;;;;23.59;46.12;99933.97;5091391;28;19912;-36
2023/05/07 05:04:02;;;;;;;;;;;;;;;23.02;46.78;99937.09;5093964;28;19999;-36
2023/05/07 05:06:27;;;;;;;;;;;;;;;23.43;46.20;99927.84;5095314;28;19916;-36
2023/05/07 05:08:52;;;;;;;;;;;;;;;23.35;46.21;99942.84;5093281;28;19912;-36
2023/05/07 05:11:18;;;;;;;;;;;;;;;23.58;45.55;99935.88;5092568;28;19965;-36
2023/05/07 05:13:43;;;;;;;;;;;;;;;23.99;44.47;99940.94;5093397;28;19919;-36
2023/05/07 05:16:08;;;;;;;;;;;;;;;24.45;44.09;99938.81;5092927;28;19912;-36
2023/05/07 05:18:34;;;;;;;;;;;;;;;24.64;43.20;99936.16;5092991;28;20378;-37
2023/05/07 05:20:59;;;;;;;;;;;;;;;24.57;42.91;99940.00;5093511;28;19912;-36
2023/05/07 05:23:24;;;;;;;;;;;;;;;24.66;42.81;99942.91;5093069;28;20011;-36
2023/05/07 05:25:50;;;;;;;;;;;;;;;24.79;43.14;99949.53;5093572;28;19978;-36
2023/05/07 05:28:15;;;;;;;;;;;;;;;25.31;41.45;99946.91;5093339;28;19936;-37
2023/05/07 05:30:40;;;;;;;;;;;;;;;25.65;40.81;99953.97;5093622;28;20361;-38
2023/05/07 05:33:05;;;;;;;;;;;;;;;25.23;40.92;99944.84;5093773;28;19912;-36
2023/05/07 05:35:31;;;;;;;;;;;;;;;25.56;41.01;99940.22;5093558;28;20347;-38
2023/05/07 05:37:57;;;;;;;;;;;;;;;25.99;39.94;99953.66;5093564;28;20001;-36
2023/05/07 05:40:22;;;;;;;;;;;;;;;26.77;38.49;99950.19;5093080;28;19916;-35
2023/05/07 05:42:47;;;;;;;;;;;;;;;26.96;38.20;99952.78;5093239;28;20010;-36
2023/05/07 05:45:12;;;;;;;;;;;;;;;27.36;37.15;99958.44;5093205;28;20347;-36
2023/05/07 05:47:39;;;;;;;;;;;;;;;27.51;36.08;99960.78;5093234;28;19912;-36
2023/05/07 05:50:06;;;;;;;;;;;;;;;27.82;35.70;99962.75;5093143;28;19920;-36
2023/05/07 05:52:31;;;;;;;;;;;;;;;27.66;35.00;99962.31;5093177;28;20310;-35
2023/05/07 05:54:56;;;;;;;;;;;;;;;27.86;34.76;99964.53;5093024;28;20625;-36
2023/05/07 05:57:22;;;;;;;;;;;;;;;28.11;34.52;99970.47;5093357;28;20346;-36
2023/05/07 05:59:47;;;;;;;;;;;;;;;27.99;34.03;99960.13;5093128;28;20049;-36
2023/05/07 06:02:12;;;;;;;;;;;;;;;28.38;33.35;99969.44;5092197;28;19916;-36
2023/05/07 06:04:38;;;;;;;;;;;;;;;28.93;32.65;99959.91;5093134;28;19951;-36
2023/05/07 06:07:03;;;;;;;;;;;;;;;29.43;32.03;99962.19;5092687;28;19939;-37
2023/05/07 06:09:28;;;;;;;;;;;;;;;29.70;31.32;99964.84;5092179;28;19947;-36
2023/05/07 06:11:54;;;;;;;;;;;;;;;29.68;32.24;99964.38;5092170;28;20039;-37
2023/05/07 06:14:19;;;;;;;;;;;;;;;29.12;31.92;99967.00;5091182;28;19912;-37
2023/05/07 06:16:44;;;;;;;;;;;;;;;28.86;32.24;99970.53;5091956;28;20489;-37
2023/05/07 06:19:10;;;;;;;;;;;;;;;29.35;31.33;99967.66;5091744;28;19916;-37
2023/05/07 06:21:35;;;;;;;;;;;;;;;29.75;31.04;99965.53;5091755;28;19920;-37
2023/05/07 06:24:00;;;;;;;;;;;;;;;29.42;31.36;99973.47;5089931;28;20023;-37
2023/05/07 06:26:26;;;;;;;;;;;;;;;29.37;31.53;99968.16;5088213;28;19920;-37
2023/05/07 06:28:51;;;;;;;;;;;;;;;28.46;32.67;99965.09;5091686;28;19917;-36
2023/05/07 06:31:20;;;;;;;;;;;;;;;28.77;32.18;99969.69;5090607;28;19968;-36
2023/05/07 06:33:45;;;;;;;;;;;;;;;28.40;33.16;99958.97;5090824;28;19926;-35
2023/05/07 06:36:11;;;;;;;;;;;;;;;28.50;32.66;99966.06;5089222;28;20304;-35
2023/05/07 06:38:36;;;;;;;;;;;;;;;29.37;31.39;99962.66;5091368;28;19950;-36
2023/05/07 06:41:01;;;;;;;;;;;;;;;30.14;30.87;99960.03;5091765;28;20380;-36
2023/05/07 06:43:27;;;;;;;;;;;;;;;29.53;31.75;99952.00;5091320;28;19912;-36
2023/05/07 06:45:52;;;;;;;;;;;;;;;30.23;30.74;99954.53;5091538;28;20395;-36
2023/05/07 06:48:17;;;;;;;;;;;;;;;29.26;31.89;99962.19;5090694;28;19912;-36
2023/05/07 06:50:42;;;;;;;;;;;;;;;30.40;30.07;99966.25;5090187;28;20004;-36
2023/05/07 06:53:08;;;;;;;;;;;;;;;29.38;30.88;99953.31;5090126;28;20379;-36
2023/05/07 06:55:33;;;;;;;;;;;;;;;29.83;30.42;99961.13;5089746;28;19916;-36
2023/05/07 06:58:00;;;;;;;;;;;;;;;30.28;30.31;99963.38;5090423;28;19928;-36
2023/05/07 07:00:26;;;;;;;;;;;;;;;30.48;29.51;99966.53;5090584;28;19924;-36
2023/05/07 07:02:51;;;;;;;;;;;;;;;30.62;29.93;99963.56;5090630;28;19912;-36
2023/05/07 07:05:17;;;;;;;;;;;;;;;30.51;29.70;99965.88;5090960;28;19912;-36
2023/05/07 07:07:42;;;;;;;;;;;;;;;29.56;31.76;99963.09;5091058;28;20422;-37
2023/05/07 07:10:07;;;;;;;;;;;;;;;30.52;30.43;99960.06;5090856;28;19916;-36
2023/05/07 07:12:33;;;;;;;;;;;;;;;29.52;31.46;99958.63;5091160;28;20014;-35
2023/05/07 07:14:58;;;;;;;;;;;;;;;29.36;32.42;99966.53;5091129;28;19919;-36
2023/05/07 07:17:24;;;;;;;;;;;;;;;29.26;32.49;99962.19;5091345;28;20053;-36
2023/05/07 07:19:49;;;;;;;;;;;;;;;28.72;32.24;99970.69;5091024;28;19999;-36
2023/05/07 07:22:14;;;;;;;;;;;;;;;29.18;31.76;99966.53;5091059;28;20023;-36
2023/05/07 07:24:39;;;;;;;;;;;;;;;30.21;30.85;99965.84;5090018;28;20007;-36
2023/05/07 07:27:05;;;;;;;;;;;;;;;29.72;30.56;99965.34;5090546;28;20014;-36
2023/05/07 07:29:30;;;;;;;;;;;;;;;28.84;32.56;99965.41;5090563;28;19916;-36
2023/05/07 07:31:56;;;;;;;;;;;;;;;29.60;31.52;99964.06;5090656;28;19912;-36
2023/05/07 07:34:21;;;;;;;;;;;;;;;29.79;31.39;99965.66;5090639;28;20001;-36
2023/05/07 07:36:46;;;;;;;;;;;;;;;30.27;31.56;99970.00;5090691;28;20290;-36
2023/05/07 07:39:11;;;;;;;;;;;;;;;30.75;30.22;99978.97;5090733;28;19920;-36
2023/05/07 07:41:37;;;;;;;;;;;;;;;31.07;30.41;99976.66;5090901;28;20415;-36
2023/05/07 07:44:03;;;;;;;;;;;;;;;31.29;28.61;99972.75;5090353;28;19916;-36
2023/05/07 07:46:29;;;;;;;;;;;;;;;31.56;28.72;99976.88;5090517;28;20452;-36
2023/05/07 07:48:54;;;;;;;;;;;;;;;31.32;28.81;99977.56;5090726;28;19912;-36
2023/05/07 07:51:20;;;;;;;;;;;;;;;30.75;29.75;99976.25;5090435;28;20464;-36
2023/05/07 07:53:45;;;;;;;;;;;;;;;30.95;29.59;99977.41;5090277;28;19928;-36
2023/05/07 07:56:11;;;;;;;;;;;;;;;30.29;30.25;99948.53;5090430;28;20587;-36
2023/05/07 07:58:37;;;;;;;;;;;;;;;29.62;32.01;99974.72;5087457;28;20633;-36
2023/05/07 08:01:03;;;;;;;;;;;;;;;29.13;32.20;99976.84;5090468;28;19969;-36
2023/05/07 08:03:31;;;;;;;;;;;;;;;28.13;33.94;99979.16;5090811;28;19916;-36
2023/05/07 08:05:56;;;;;;;;;;;;;;;29.36;32.24;99980.22;5090181;28;20248;-37
2023/05/07 08:08:22;;;;;;;;;;;;;;;29.92;31.31;99980.31;5090213;28;19912;-37
2023/05/07 08:10:49;;;;;;;;;;;;;;;30.55;30.62;99975.84;5090323;28;20018;-37
2023/05/07 08:13:15;;;;;;;;;;;;;;;30.40;31.08;99970.94;5090013;28;20265;-37
2023/05/07 08:15:40;;;;;;;;;;;;;;;30.97;29.62;99975.13;5090370;28;20045;-36
2023/05/07 08:18:05;;;;;;;;;;;;;;;30.12;31.02;99971.38;5090414;28;20371;-36
2023/05/07 08:20:31;;;;;;;;;;;;;;;29.79;30.34;99960.19;5089744;28;20415;-36
2023/05/07 08:22:56;;;;;;;;;;;;;;;29.55;30.81;99967.00;5090470;28;19912;-36
2023/05/07 08:25:21;;;;;;;;;;;;;;;29.45;32.15;99964.56;5090159;28;19983;-36
2023/05/07 08:27:47;;;;;;;;;;;;;;;29.32;31.32;99963.66;5089742;28;19924;-36
2023/05/07 08:30:12;;;;;;;;;;;;;;;29.99;28.86;99958.69;5090108;28;20012;-36
2023/05/07 08:32:38;;;;;;;;;;;;;;;30.20;28.36;99958.75;5089940;28;19912;-36
2023/05/07 08:35:03;;;;;;;;;;;;;;;28.58;30.17;99953.59;5089862;28;20407;-36
2023/05/07 08:37:28;;;;;;;;;;;;;;;29.23;30.06;99960.09;5092839;28;19912;-36
2023/05/07 08:39:54;;;;;;;;;;;;;;;28.34;31.59;99952.03;5093585;28;19923;-36
2023/05/07 08:42:20;;;;;;;;;;;;;;;28.09;32.01;99950.84;5093789;28;19913;-36
2023/05/07 08:44:49;;;;;;;;;;;;;;;28.36;32.20;99951.72;5093363;28;20014;-36
2023/05/07 08:47:14;;;;;;;;;;;;;;;29.26;32.32;99943.00;5093538;28;20356;-36
2023/05/07 08:49:40;;;;;;;;;;;;;;;28.69;31.72;99946.66;5093607;28;19963;-36
2023/05/07 08:52:05;;;;;;;;;;;;;;;28.31;32.04;99943.66;5093790;28;19970;-36
2023/05/07 08:54:31;;;;;;;;;;;;;;;28.64;31.30;99950.38;5093411;28;19977;-36
2023/05/07 08:56:56;;;;;;;;;;;;;;;28.89;31.44;99938.97;5093950;28;19939;-36
2023/05/07 08:59:22;;;;;;;;;;;;;;;28.44;32.29;99929.88;5092051;28;19989;-36
2023/05/07 09:01:47;;;;;;;;;;;;;;;28.38;30.57;99927.59;5092995;28;20407;-35
2023/05/07 09:04:12;;;;;;;;;;;;;;;28.27;28.90;99935.28;5093769;28;19912;-36
2023/05/07 09:06:41;;;;;;;;;;;;;;;27.71;28.99;99925.88;5093349;28;20448;-37
2023/05/07 09:09:07;;;;;;;;;;;;;;;26.66;31.63;99938.72;5093646;28;19912;-37
2023/05/07 09:11:32;;;;;;;;;;;;;;;27.50;31.74;99929.13;5093719;28;19912;-37
2023/05/07 09:14:00;;;;;;;;;;;;;;;28.59;29.89;99923.16;5093667;28;20397;-36
2023/05/07 09:16:26;;;;;;;;;;;;;;;29.46;28.65;99924.28;5093508;28;19916;-36
2023/05/07 09:18:52;;;;;;;;;;;;;;;28.01;27.39;99924.25;5093152;28;19973;-36
2023/05/07 09:21:18;;;;;;;;;;;;;;;26.39;27.38;99923.13;5093081;28;19916;-36
2023/05/07 09:23:43;;;;;;;;;;;;;;;26.31;28.41;99920.03;5092979;28;20217;-35
2023/05/07 09:26:11;;;;;;;;;;;;;;;27.26;29.18;99916.59;5086612;28;20369;-36
2023/05/07 09:28:41;;;;;;;;;;;;;;;27.63;28.68;99914.56;5085589;28;19924;-36
2023/05/07 09:31:06;;;;;;;;;;;;;;;29.08;27.90;99909.31;5092571;28;19912;-36
2023/05/07 09:33:31;;;;;;;;;;;;;;;28.27;27.65;99921.59;5086028;28;20234;-36
2023/05/07 09:35:57;;;;;;;;;;;;;;;27.71;28.46;99913.00;5090021;28;20326;-37
2023/05/07 09:38:22;;;;;;;;;;;;;;;27.28;29.54;99908.91;5090172;28;19913;-37
2023/05/07 09:41:01;;;;;;;;;;;;;;;27.22;29.76;99906.56;5093008;28;20022;-37
2023/05/07 09:43:26;;;;;;;;;;;;;;;27.78;30.16;99913.38;5092226;28;19931;-37
2023/05/07 09:45:51;;;;;;;;;;;;;;;27.19;30.08;99905.28;5093295;28;19912;-38
2023/05/07 09:48:18;;;;;;;;;;;;;;;27.08;30.69;99906.63;5091713;28;19912;-37
2023/05/07 09:50:49;;;;;;;;;;;;;;;27.13;30.82;99892.88;5093591;28;19912;-38
2023/05/07 09:53:15;;;;;;;;;;;;;;;28.00;30.59;99898.81;5092092;28;20375;-35
2023/05/07 09:55:41;;;;;;;;;;;;;;;27.61;30.36;99894.16;5091781;28;19912;-37
2023/05/07 09:58:07;;;;;;;;;;;;;;;26.24;32.38;99895.09;5092967;28;19912;-37
2023/05/07 10:00:32;;;;;;;;;;;;;;;26.60;31.77;99890.78;5092472;28;19916;-37
2023/05/07 10:02:58;;;;;;;;;;;;;;;27.53;31.63;99882.06;5091489;28;19912;-37
2023/05/07 10:05:23;;;;;;;;;;;;;;;27.46;30.45;99870.75;5092467;28;20384;-37
2023/05/07 10:07:50;;;;;;;;;;;;;;;26.41;31.61;99894.47;5092789;28;20034;-36
2023/05/07 10:10:15;;;;;;;;;;;;;;;26.24;32.25;99886.09;5093032;28;20003;-36
2023/05/07 10:12:41;;;;;;;;;;;;;;;25.43;33.55;99881.84;5092963;28;20281;-36
2023/05/07 10:15:07;;;;;;;;;;;;;;;25.89;32.54;99886.50;5092707;28;19912;-36
2023/05/07 10:17:35;;;;;;;;;;;;;;;26.88;30.81;99867.78;5092684;28;19919;-36
2023/05/07 10:20:00;;;;;;;;;;;;;;;27.30;30.22;99859.41;5092432;28;19916;-37
2023/05/07 10:22:27;;;;;;;;;;;;;;;27.43;29.61;99865.91;5092646;28;20395;-37
2023/05/07 10:24:54;;;;;;;;;;;;;;;27.28;30.50;99859.72;5092808;28;19947;-37
2023/05/07 10:27:20;;;;;;;;;;;;;;;27.08;31.35;99857.47;5092824;28;19924;-36
2023/05/07 10:29:55;;;;;;;;;;;;;;;26.72;31.26;99861.84;5092869;28;19923;-36
2023/05/07 10:32:37;;;;;;;;;;;;;;;26.14;31.17;99863.38;5093036;28;19912;-37
2023/05/07 10:35:03;;;;;;;;;;;;;;;25.75;32.89;99861.94;5092731;28;20415;-37
2023/05/07 10:37:29;;;;;;;;;;;;;;;25.74;31.98;99856.78;5092317;28;19912;-36
2023/05/07 10:39:54;;;;;;;;;;;;;;;25.59;31.57;99859.78;5092528;28;19939;-36
2023/05/07 10:42:19;;;;;;;;;;;;;;;25.57;31.28;99846.50;5092232;28;19935;-36
2023/05/07 10:44:45;;;;;;;;;;;;;;;25.59;31.69;99832.53;5092456;28;19920;-37
2023/05/07 10:47:11;;;;;;;;;;;;;;;25.86;31.19;99827.13;5092525;28;19938;-37
2023/05/07 10:49:56;;;;;;;;;;;;;;;25.58;31.00;99828.22;5092221;28;19912;-36
2023/05/07 10:52:26;;;;;;;;;;;;;;;25.98;31.26;99847.63;5087943;28;19912;-36
2023/05/07 10:55:19;;;;;;;;;;;;;;;25.25;31.88;99831.81;5092249;28;19912;-37
2023/05/07 10:57:45;;;;;;;;;;;;;;;25.84;31.06;99837.50;5092088;28;19978;-37
2023/05/07 11:00:30;;;;;;;;;;;;;;;25.48;31.80;99831.94;5092245;28;19948;-37
2023/05/07 11:03:02;;;;;;;;;;;;;;;25.47;32.09;99827.59;5087404;28;19924;-37
2023/05/07 11:05:28;;;;;;;;;;;;;;;25.60;31.89;99826.00;5091783;28;19908;-37
2023/05/07 11:07:57;;;;;;;;;;;;;;;25.56;31.68;99823.06;5091945;28;19912;-37
2023/05/07 11:10:23;;;;;;;;;;;;;;;25.65;31.88;99815.81;5091900;28;19938;-37
2023/05/07 11:12:49;;;;;;;;;;;;;;;25.99;30.40;99813.78;5091847;28;19912;-36
2023/05/07 11:15:18;;;;;;;;;;;;;;;26.39;30.64;99812.13;5091755;28;20319;-36
2023/05/07 11:17:56;;;;;;;;;;;;;;;26.23;30.11;99814.38;5091735;28;19967;-37
2023/05/07 11:20:40;;;;;;;;;;;;;;;26.21;30.23;99819.31;5091669;28;19963;-37
2023/05/07 11:23:05;;;;;;;;;;;;;;;25.73;30.24;99817.03;5091574;28;19923;-37
2023/05/07 11:25:31;;;;;;;;;;;;;;;26.30;30.04;99805.78;5091457;28;19916;-37
2023/05/07 11:28:03;;;;;;;;;;;;;;;26.16;30.33;99815.91;5091899;28;19916;-37
2023/05/07 11:30:29;;;;;;;;;;;;;;;25.74;31.36;99805.81;5091744;28;19916;-37
2023/05/07 11:32:54;;;;;;;;;;;;;;;25.90;30.81;99809.03;5091310;28;19998;-37
2023/05/07 11:35:22;;;;;;;;;;;;;;;26.19;30.98;99804.38;5091632;28;20011;-37
2023/05/07 11:37:48;;;;;;;;;;;;;;;26.82;29.89;99794.50;5089308;28;19912;-37
2023/05/07 11:40:13;;;;;;;;;;;;;;;26.79;29.12;99804.13;5090411;28;19973;-37
2023/05/07 11:42:39;;;;;;;;;;;;;;;27.21;28.67;99801.97;5091178;28;19912;-37
2023/05/07 11:45:05;;;;;;;;;;;;;;;27.30;28.44;99800.13;5091785;28;19915;-37
2023/05/07 11:47:31;;;;;;;;;;;;;;;26.77;29.86;99802.81;5091666;28;19938;-37
2023/05/07 11:49:56;;;;;;;;;;;;;;;27.55;29.16;99803.28;5091822;28;20300;-37
2023/05/07 11:52:23;;;;;;;;;;;;;;;28.16;28.18;99789.81;5091337;28;19970;-37
2023/05/07 11:54:49;;;;;;;;;;;;;;;27.41;29.16;99800.63;5091266;28;19943;-37
2023/05/07 11:57:14;;;;;;;;;;;;;;;27.62;29.30;99795.41;5091247;28;19974;-37
2023/05/07 11:59:40;;;;;;;;;;;;;;;26.65;30.24;99795.19;5091383;28;20325;-37
2023/05/07 12:02:05;;;;;;;;;;;;;;;26.63;30.04;99797.41;5091490;28;19916;-37
2023/05/07 12:04:31;;;;;;;;;;;;;;;27.36;28.83;99784.41;5091348;28;20342;-37
2023/05/07 12:06:56;;;;;;;;;;;;;;;27.05;30.01;99792.56;5091218;28;19919;-37
2023/05/07 12:09:21;;;;;;;;;;;;;;;26.81;30.61;99779.25;5091484;28;19946;-36
2023/05/07 12:11:47;;;;;;;;;;;;;;;26.24;31.14;99785.19;5093313;28;19936;-36
2023/05/07 12:14:13;;;;;;;;;;;;;;;26.53;30.94;99777.41;5095269;28;19920;-36
2023/05/07 12:16:40;;;;;;;;;;;;;;;26.97;30.55;99776.94;5095417;28;19912;-36
2023/05/07 12:19:07;;;;;;;;;;;;;;;26.89;30.03;99775.78;5095165;28;20022;-38
2023/05/07 12:21:33;;;;;;;;;;;;;;;26.79;29.92;99765.91;5095439;28;19939;-37
2023/05/07 12:23:58;;;;;;;;;;;;;;;26.67;30.01;99780.13;5095360;28;20380;-36
2023/05/07 12:26:24;;;;;;;;;;;;;;;26.01;31.52;99778.84;5094945;28;19977;-37
2023/05/07 12:28:49;;;;;;;;;;;;;;;26.30;31.25;99771.13;5095183;28;19920;-37
2023/05/07 12:31:15;;;;;;;;;;;;;;;26.58;29.99;99775.66;5095384;28;20386;-37
2023/05/07 12:33:41;;;;;;;;;;;;;;;25.93;31.13;99766.75;5094897;28;19998;-37
2023/05/07 12:36:07;;;;;;;;;;;;;;;25.95;31.63;99761.84;5095024;28;19959;-37
2023/05/07 12:38:34;;;;;;;;;;;;;;;25.88;31.57;99762.19;5094955;28;19942;-37
2023/05/07 12:40:59;;;;;;;;;;;;;;;25.83;31.47;99758.78;5094820;28;19920;-37